createdAt,value
2022-09-24T00:02:32.379Z,72.26
2022-09-24T00:05:17.893Z,72.02
2022-09-24T00:08:03.325Z,72.30
2022-09-24T00:10:49.104Z,71.56
2022-09-24T00:13:35.664Z,72.16
2022-09-24T00:16:23.633Z,72.29
2022-09-24T00:19:12.194Z,72.15
2022-09-24T00:21:57.713Z,72.47
2022-09-24T00:25:01.590Z,72.61
2022-09-24T00:27:46.864Z,72.40
2022-09-24T00:30:32.557Z,72.21
2022-09-24T00:33:18.408Z,72.89
2022-09-24T00:36:05.829Z,72.91
2022-09-24T00:38:53.865Z,72.67
2022-09-24T00:41:42.289Z,72.87
2022-09-24T00:44:45.946Z,72.05
2022-09-24T00:47:40.310Z,72.17
2022-09-24T00:50:31.616Z,72.00
2022-09-24T00:53:20.194Z,71.55
2022-09-24T00:56:08.404Z,71.92
2022-09-24T00:58:57.400Z,71.51
2022-09-24T01:01:47.172Z,71.69
2022-09-24T01:04:32.925Z,71.44
2022-09-24T01:07:18.223Z,71.39
2022-09-24T01:10:04.909Z,71.47
2022-09-24T01:13:01.748Z,71.33
2022-09-24T01:15:58.480Z,70.81
2022-09-24T01:18:55.273Z,71.34
2022-09-24T01:21:50.757Z,71.65
2022-09-24T01:24:52.421Z,71.68
2022-09-24T01:28:18.314Z,71.58
2022-09-24T01:31:46.862Z,71.67
2022-09-24T01:34:47.062Z,72.01
2022-09-24T01:37:34.947Z,71.58
2022-09-24T01:40:24.366Z,71.73
2022-09-24T01:43:11.784Z,71.88
2022-09-24T01:46:00.986Z,72.01
2022-09-24T01:48:47.006Z,71.75
2022-09-24T01:51:45.507Z,72.52
2022-09-24T01:54:42.925Z,72.49
2022-09-24T01:57:35.987Z,72.83
2022-09-24T02:00:22.372Z,72.39
2022-09-24T02:03:19.157Z,72.22
2022-09-24T02:06:14.286Z,72.55
2022-09-24T02:08:59.542Z,73.19
2022-09-24T02:11:45.146Z,73.50
2022-09-24T02:14:32.529Z,73.99
2022-09-24T02:17:18.926Z,74.42
2022-09-24T02:20:11.406Z,75.16
2022-09-24T02:22:57.459Z,75.01
2022-09-24T02:25:52.037Z,75.28
2022-09-24T02:28:37.837Z,75.45
2022-09-24T02:31:37.833Z,75.74
2022-09-24T02:34:52.079Z,75.88
2022-09-24T02:37:40.204Z,75.53
2022-09-24T02:40:26.063Z,74.99
2022-09-24T02:43:11.188Z,75.79
2022-09-24T02:45:56.914Z,75.05
2022-09-24T02:48:42.193Z,75.43
2022-09-24T02:51:28.173Z,75.33
2022-09-24T02:54:13.793Z,75.12
2022-09-24T02:56:59.279Z,74.95
2022-09-24T02:59:45.600Z,75.07
2022-09-24T03:02:31.158Z,75.22
2022-09-24T03:05:18.289Z,75.15
2022-09-24T03:08:04.269Z,74.46
2022-09-24T03:10:51.183Z,74.08
2022-09-24T03:13:38.146Z,74.23
2022-09-24T03:16:23.699Z,74.01
2022-09-24T03:19:09.006Z,74.23
2022-09-24T03:21:54.349Z,73.97
2022-09-24T03:24:39.948Z,74.31
2022-09-24T03:27:25.213Z,74.01
2022-09-24T03:30:29.667Z,74.11
2022-09-24T03:33:15.076Z,73.72
2022-09-24T03:36:09.706Z,73.92
2022-09-24T03:38:56.937Z,74.12
2022-09-24T03:41:42.230Z,74.36
2022-09-24T03:44:28.644Z,74.17
2022-09-24T03:47:14.101Z,74.08
2022-09-24T03:49:59.259Z,74.03
2022-09-24T03:52:44.525Z,73.54
2022-09-24T03:55:30.051Z,74.10
2022-09-24T03:58:16.226Z,73.23
2022-09-24T04:01:02.050Z,73.33
2022-09-24T04:03:48.936Z,73.70
2022-09-24T04:06:35.277Z,73.87
2022-09-24T04:09:20.888Z,74.11
2022-09-24T04:12:06.573Z,74.36
2022-09-24T04:14:52.227Z,74.00
2022-09-24T04:17:37.648Z,74.83
2022-09-24T04:20:24.598Z,74.82
2022-09-24T04:23:10.628Z,74.99
2022-09-24T04:25:56.427Z,75.92
2022-09-24T04:28:41.825Z,76.30
2022-09-24T04:31:27.410Z,76.16
2022-09-24T04:34:12.840Z,76.37
2022-09-24T04:36:58.367Z,76.93
2022-09-24T04:39:43.706Z,76.97
2022-09-24T04:42:29.225Z,76.97
2022-09-24T04:45:20.311Z,77.55
2022-09-24T04:48:05.915Z,77.67
2022-09-24T04:50:51.773Z,77.33
2022-09-24T04:53:37.687Z,76.65
2022-09-24T04:56:23.173Z,76.38
2022-09-24T04:59:09.126Z,76.30
2022-09-24T05:01:55.138Z,76.19
2022-09-24T05:04:41.031Z,76.38
2022-09-24T05:07:26.261Z,76.06
2022-09-24T05:10:12.101Z,76.13
2022-09-24T05:12:57.871Z,76.71
2022-09-24T05:15:43.608Z,75.82
2022-09-24T05:18:29.757Z,76.54
2022-09-24T05:21:15.840Z,76.53
2022-09-24T05:24:01.616Z,76.38
2022-09-24T05:27:05.787Z,76.48
2022-09-24T05:29:51.152Z,76.62
2022-09-24T05:32:36.729Z,76.67
2022-09-24T05:35:23.832Z,77.09
2022-09-24T05:38:09.561Z,76.91
2022-09-24T05:40:54.963Z,76.99
2022-09-24T05:43:41.151Z,76.82
2022-09-24T05:46:26.994Z,76.75
2022-09-24T05:49:12.417Z,77.29
2022-09-24T05:51:57.939Z,76.89
2022-09-24T05:54:43.790Z,77.32
2022-09-24T05:57:29.121Z,77.43
2022-09-24T06:00:15.009Z,77.35
2022-09-24T06:03:07.983Z,77.68
2022-09-24T06:05:53.795Z,77.95
2022-09-24T06:08:39.188Z,77.94
2022-09-24T06:11:25.644Z,78.53
2022-09-24T06:14:12.251Z,78.25
2022-09-24T06:16:57.802Z,78.72
2022-09-24T06:19:43.244Z,78.67
2022-09-24T06:22:29.400Z,78.45
2022-09-24T06:25:15.290Z,78.52
2022-09-24T06:28:03.797Z,78.77
2022-09-24T06:30:49.514Z,79.63
2022-09-24T06:33:35.502Z,79.69
2022-09-24T06:36:21.412Z,78.46
2022-09-24T06:39:07.768Z,77.75
2022-09-24T06:41:53.674Z,77.26
2022-09-24T06:44:42.477Z,77.27
2022-09-24T06:47:30.136Z,78.03
2022-09-24T06:50:15.586Z,77.41
2022-09-24T06:53:05.405Z,77.20
2022-09-24T06:55:51.253Z,76.60
2022-09-24T06:58:36.847Z,76.36
2022-09-24T07:01:22.713Z,76.63
2022-09-24T07:04:08.124Z,76.32
2022-09-24T07:07:11.993Z,74.99
2022-09-24T07:09:57.837Z,74.39
2022-09-24T07:12:43.721Z,73.93
2022-09-24T07:15:30.159Z,74.35
2022-09-24T07:18:24.358Z,73.18
2022-09-24T07:21:12.242Z,72.68
2022-09-24T07:23:59.489Z,71.81
2022-09-24T07:26:45.221Z,71.57
2022-09-24T07:29:31.054Z,72.23
2022-09-24T07:32:20.171Z,71.32
2022-09-24T07:35:06.234Z,71.04
2022-09-24T07:38:03.121Z,71.07
2022-09-24T07:40:49.251Z,70.98
2022-09-24T07:43:34.883Z,71.50
2022-09-24T07:46:21.402Z,70.42
2022-09-24T07:49:06.881Z,70.65
2022-09-24T07:51:52.348Z,70.86
2022-09-24T07:54:41.424Z,69.81
2022-09-24T07:57:28.039Z,68.84
2022-09-24T08:00:14.526Z,68.32
2022-09-24T08:03:02.262Z,69.46
2022-09-24T08:05:48.166Z,66.89
2022-09-24T08:08:33.525Z,67.21
2022-09-24T08:11:19.919Z,64.48
2022-09-24T08:14:05.950Z,60.44
2022-09-24T08:16:51.399Z,62.75
2022-09-24T08:19:36.741Z,63.75
2022-09-24T08:22:24.346Z,60.88
2022-09-24T08:25:10.480Z,62.86
2022-09-24T08:27:55.770Z,63.27
2022-09-24T08:30:42.531Z,62.89
2022-09-24T08:33:29.378Z,61.48
2022-09-24T08:36:15.013Z,61.86
2022-09-24T08:39:00.383Z,63.64
2022-09-24T08:41:56.125Z,62.49
2022-09-24T08:45:03.568Z,59.69
2022-09-24T08:47:55.102Z,61.57
2022-09-24T08:51:01.350Z,63.24
2022-09-24T08:53:48.713Z,63.36
2022-09-24T08:56:37.354Z,60.95
2022-09-24T08:59:33.269Z,60.23
2022-09-24T09:02:42.204Z,60.46
2022-09-24T09:05:40.323Z,61.02
2022-09-24T09:08:50.422Z,60.61
2022-09-24T09:11:33.168Z,61.05
2022-09-24T09:14:37.018Z,61.86
2022-09-24T09:17:29.826Z,61.53
2022-09-24T09:20:24.361Z,59.60
2022-09-24T09:23:20.612Z,60.44
2022-09-24T09:26:11.577Z,61.03
2022-09-24T09:29:01.007Z,60.98
2022-09-24T09:31:53.883Z,60.34
2022-09-24T09:35:03.515Z,61.63
2022-09-24T09:38:09.820Z,59.68
2022-09-24T09:41:14.597Z,58.73
2022-09-24T09:44:10.903Z,59.71
2022-09-24T09:47:25.944Z,60.11
2022-09-24T09:50:39.599Z,57.93
2022-09-24T09:53:33.253Z,58.84
2022-09-24T09:56:23.983Z,58.03
2022-09-24T09:59:12.635Z,57.63
2022-09-24T10:02:01.259Z,58.50
2022-09-24T10:04:46.812Z,58.83
2022-09-24T10:07:32.977Z,58.31
2022-09-24T10:10:24.057Z,55.69
2022-09-24T10:13:13.384Z,57.76
2022-09-24T10:16:04.523Z,58.18
2022-09-24T10:18:51.392Z,57.41
2022-09-24T10:21:37.507Z,59.39
2022-09-24T10:24:26.241Z,57.10
2022-09-24T10:27:24.215Z,56.32
2022-09-24T10:30:34.785Z,55.83
2022-09-24T10:33:20.723Z,54.14
2022-09-24T10:36:20.808Z,54.41
2022-09-24T10:39:15.751Z,54.92
2022-09-24T10:42:01.293Z,54.70
2022-09-24T10:44:52.606Z,54.58
2022-09-24T10:48:08.894Z,55.79
2022-09-24T10:51:11.921Z,55.68
2022-09-24T10:54:27.762Z,56.13
2022-09-24T10:57:39.838Z,56.51
2022-09-24T11:00:40.653Z,56.73
2022-09-24T11:03:47.871Z,57.28
2022-09-24T11:06:45.476Z,55.13
2022-09-24T11:09:49.617Z,54.49
2022-09-24T11:13:07.343Z,53.91
2022-09-24T11:16:14.932Z,53.23
2022-09-24T11:19:15.020Z,53.39
2022-09-24T11:22:33.518Z,54.36
2022-09-24T11:25:41.000Z,53.03
2022-09-24T11:28:41.363Z,53.53
2022-09-24T11:31:36.136Z,54.60
2022-09-24T11:34:45.032Z,56.00
2022-09-24T11:37:57.322Z,56.67
2022-09-24T11:40:53.171Z,55.50
2022-09-24T11:44:03.076Z,55.85
2022-09-24T11:47:34.561Z,56.27
2022-09-24T11:50:34.982Z,55.76
2022-09-24T11:53:46.694Z,53.60
2022-09-24T11:56:37.281Z,54.22
2022-09-24T11:59:39.297Z,54.01
2022-09-24T12:02:37.184Z,55.27
2022-09-24T12:05:28.603Z,56.44
2022-09-24T12:08:19.124Z,54.88
2022-09-24T12:11:10.499Z,54.95
2022-09-24T12:14:03.523Z,53.40
2022-09-24T12:16:57.035Z,54.13
2022-09-24T12:19:53.986Z,53.96
2022-09-24T12:22:41.712Z,54.11
2022-09-24T12:25:32.505Z,53.13
2022-09-24T12:28:39.002Z,52.42
2022-09-24T12:31:46.075Z,53.80
2022-09-24T12:34:43.195Z,54.58
2022-09-24T12:37:40.179Z,53.77
2022-09-24T12:40:34.982Z,52.68
2022-09-24T12:43:34.518Z,53.50
2022-09-24T12:46:24.587Z,54.08
2022-09-24T12:49:25.363Z,52.12
2022-09-24T12:52:24.924Z,52.97
2022-09-24T12:55:31.804Z,52.52
2022-09-24T12:58:30.919Z,52.83
2022-09-24T13:01:32.824Z,53.03
2022-09-24T13:04:18.373Z,51.01
2022-09-24T13:07:03.783Z,52.21
2022-09-24T13:09:49.801Z,51.78
2022-09-24T13:12:35.107Z,51.87
2022-09-24T13:15:40.607Z,50.59
2022-09-24T13:18:26.721Z,49.88
2022-09-24T13:21:23.473Z,50.37
2022-09-24T13:24:12.824Z,49.59
2022-09-24T13:27:41.925Z,50.41
2022-09-24T13:30:30.206Z,50.13
2022-09-24T13:33:24.204Z,50.10
2022-09-24T13:36:17.533Z,50.15
2022-09-24T13:39:24.915Z,51.34
2022-09-24T13:42:58.212Z,51.66
2022-09-24T13:45:45.483Z,52.97
2022-09-24T13:48:41.223Z,53.04
2022-09-24T13:51:31.386Z,52.88
2022-09-24T13:54:19.743Z,52.84
2022-09-24T13:57:20.012Z,53.16
2022-09-24T14:00:22.112Z,53.42
2022-09-24T14:03:23.140Z,53.37
2022-09-24T14:06:14.445Z,53.68
2022-09-24T14:09:01.525Z,53.79
2022-09-24T14:11:56.363Z,53.91
2022-09-24T14:14:51.021Z,54.70
2022-09-24T14:17:39.461Z,54.30
2022-09-24T14:20:30.712Z,54.87
2022-09-24T14:23:22.645Z,55.15
2022-09-24T14:26:15.094Z,54.99
2022-09-24T14:29:06.784Z,55.23
2022-09-24T14:31:58.364Z,55.36
2022-09-24T14:34:44.056Z,55.85
2022-09-24T14:37:33.135Z,55.90
2022-09-24T14:40:21.856Z,55.40
2022-09-24T14:43:15.898Z,56.12
2022-09-24T14:46:15.720Z,55.98
2022-09-24T14:49:06.775Z,56.28
2022-09-24T14:51:57.909Z,57.28
2022-09-24T14:54:44.001Z,57.48
2022-09-24T14:57:37.461Z,57.41
2022-09-24T15:00:30.342Z,57.67
2022-09-24T15:03:20.776Z,57.67
2022-09-24T15:06:30.307Z,58.57
2022-09-24T15:09:29.978Z,59.37
2022-09-24T15:12:30.756Z,59.97
2022-09-24T15:15:26.521Z,60.56
2022-09-24T15:18:12.275Z,60.27
2022-09-24T15:20:59.783Z,60.51
2022-09-24T15:23:45.269Z,60.76
2022-09-24T15:26:34.092Z,61.55
2022-09-24T15:29:24.520Z,61.05
2022-09-24T15:32:19.555Z,60.97
2022-09-24T15:35:09.813Z,61.55
2022-09-24T15:37:55.493Z,61.69
2022-09-24T15:40:42.333Z,61.59
2022-09-24T15:43:27.901Z,61.33
2022-09-24T15:46:13.532Z,61.78
2022-09-24T15:48:59.183Z,62.46
2022-09-24T15:51:44.926Z,62.33
2022-09-24T15:54:30.296Z,63.12
2022-09-24T15:57:16.711Z,63.42
2022-09-24T16:00:02.274Z,63.64
2022-09-24T16:02:56.789Z,63.65
2022-09-24T16:05:42.728Z,63.66
2022-09-24T16:08:28.667Z,63.52
2022-09-24T16:11:14.039Z,63.68
2022-09-24T16:13:59.547Z,64.16
2022-09-24T16:16:44.958Z,64.17
2022-09-24T16:19:30.366Z,65.19
2022-09-24T16:22:19.690Z,65.45
2022-09-24T16:25:06.836Z,66.84
2022-09-24T16:27:52.202Z,68.08
2022-09-24T16:30:38.911Z,68.60
2022-09-24T16:33:26.105Z,69.00
2022-09-24T16:36:12.196Z,69.41
2022-09-24T16:38:58.213Z,68.42
2022-09-24T16:41:44.442Z,68.83
2022-09-24T16:44:29.962Z,68.58
2022-09-24T16:47:16.475Z,68.60
2022-09-24T16:50:01.677Z,68.63
2022-09-24T16:52:49.295Z,68.29
2022-09-24T16:55:35.110Z,68.22
2022-09-24T16:58:20.633Z,68.42
2022-09-24T17:01:07.783Z,68.36
2022-09-24T17:03:55.575Z,68.62
2022-09-24T17:06:44.597Z,69.28
2022-09-24T17:09:48.893Z,69.59
2022-09-24T17:12:34.600Z,68.76
2022-09-24T17:15:20.998Z,68.56
2022-09-24T17:18:06.269Z,68.57
2022-09-24T17:21:00.247Z,69.03
2022-09-24T17:23:45.677Z,69.06
2022-09-24T17:26:31.054Z,69.09
2022-09-24T17:29:20.574Z,68.86
2022-09-24T17:32:06.479Z,68.78
2022-09-24T17:34:51.969Z,68.87
2022-09-24T17:37:37.367Z,68.52
2022-09-24T17:40:24.477Z,68.71
2022-09-24T17:43:10.128Z,69.15
2022-09-24T17:46:02.958Z,69.28
2022-09-24T17:48:52.562Z,69.55
2022-09-24T17:51:38.948Z,69.77
2022-09-24T17:54:26.707Z,70.18
2022-09-24T17:57:12.167Z,70.37
2022-09-24T17:59:57.381Z,70.60
2022-09-24T18:02:42.897Z,70.17
2022-09-24T18:05:28.197Z,70.87
2022-09-24T18:08:14.009Z,70.75
2022-09-24T18:11:09.985Z,70.89
2022-09-24T18:13:58.235Z,70.83
2022-09-24T18:16:44.456Z,70.77
2022-09-24T18:19:31.920Z,70.86
2022-09-24T18:22:18.625Z,70.76
2022-09-24T18:25:06.147Z,70.66
2022-09-24T18:27:52.133Z,70.81
2022-09-24T18:30:39.044Z,71.16
2022-09-24T18:33:25.226Z,71.40
2022-09-24T18:36:15.983Z,71.50
2022-09-24T18:39:02.148Z,71.71
2022-09-24T18:41:47.373Z,71.81
2022-09-24T18:44:33.822Z,71.76
2022-09-24T18:47:20.447Z,72.43
2022-09-24T18:50:06.427Z,71.92
2022-09-24T18:52:51.819Z,72.42
2022-09-24T18:55:42.702Z,73.14
2022-09-24T18:58:28.472Z,73.66
2022-09-24T19:01:15.601Z,73.80
2022-09-24T19:04:02.029Z,73.61
2022-09-24T19:06:51.927Z,73.78
2022-09-24T19:09:37.562Z,73.42
2022-09-24T19:12:22.883Z,73.44
2022-09-24T19:15:08.559Z,72.81
2022-09-24T19:17:53.910Z,72.35
2022-09-24T19:20:41.274Z,72.22
2022-09-24T19:23:26.881Z,72.50
2022-09-24T19:26:15.414Z,72.31
2022-09-24T19:29:01.387Z,72.46
2022-09-24T19:31:48.810Z,72.53
2022-09-24T19:34:34.367Z,72.14
2022-09-24T19:37:20.492Z,72.23
2022-09-24T19:40:06.947Z,72.37
2022-09-24T19:42:52.789Z,72.45
2022-09-24T19:45:38.681Z,72.48
2022-09-24T19:48:26.297Z,72.77
2022-09-24T19:51:15.506Z,72.44
2022-09-24T19:54:04.073Z,72.55
2022-09-24T19:56:49.513Z,72.43
2022-09-24T19:59:34.929Z,72.22
2022-09-24T20:02:21.610Z,72.44
2022-09-24T20:05:09.132Z,72.84
2022-09-24T20:07:55.285Z,72.92
2022-09-24T20:10:42.194Z,73.03
2022-09-24T20:13:28.468Z,72.73
2022-09-24T20:16:16.332Z,72.94
2022-09-24T20:19:03.348Z,72.62
2022-09-24T20:21:48.891Z,72.86
2022-09-24T20:24:34.380Z,73.28
2022-09-24T20:27:38.503Z,73.24
2022-09-24T20:30:23.962Z,73.42
2022-09-24T20:33:10.466Z,73.34
2022-09-24T20:36:02.312Z,73.14
2022-09-24T20:38:48.125Z,73.80
2022-09-24T20:41:34.100Z,73.76
2022-09-24T20:44:21.512Z,74.02
2022-09-24T20:47:07.978Z,74.11
2022-09-24T20:49:54.815Z,74.00
2022-09-24T20:52:40.336Z,74.40
2022-09-24T20:55:25.834Z,74.81
2022-09-24T20:58:11.543Z,74.52
2022-09-24T21:00:57.371Z,73.91
2022-09-24T21:03:45.267Z,74.05
2022-09-24T21:06:31.560Z,73.32
2022-09-24T21:09:17.563Z,72.68
2022-09-24T21:12:03.718Z,73.02
2022-09-24T21:14:49.631Z,72.64
2022-09-24T21:17:35.432Z,72.24
2022-09-24T21:20:20.944Z,72.59
2022-09-24T21:23:06.357Z,72.41
2022-09-24T21:25:54.821Z,72.74
2022-09-24T21:28:42.529Z,72.98
2022-09-24T21:31:30.157Z,72.99
2022-09-24T21:34:17.643Z,72.75
2022-09-24T21:37:03.054Z,72.98
2022-09-24T21:39:48.241Z,73.31
2022-09-24T21:42:35.809Z,73.17
2022-09-24T21:45:21.269Z,73.67
2022-09-24T21:48:07.395Z,73.45
2022-09-24T21:51:03.374Z,73.38
2022-09-24T21:53:50.989Z,74.01
2022-09-24T21:56:36.486Z,74.07
2022-09-24T21:59:40.713Z,74.01
2022-09-24T22:02:26.054Z,73.99
2022-09-24T22:05:11.429Z,74.42
2022-09-24T22:07:56.993Z,74.14
2022-09-24T22:10:44.141Z,74.66
2022-09-24T22:13:31.077Z,74.40
2022-09-24T22:16:16.243Z,74.22
2022-09-24T22:19:06.760Z,74.61
2022-09-24T22:21:52.493Z,74.18
2022-09-24T22:24:37.772Z,74.52
2022-09-24T22:27:23.561Z,74.62
2022-09-24T22:30:10.237Z,74.37
2022-09-24T22:32:57.328Z,75.04
2022-09-24T22:35:49.758Z,75.22
2022-09-24T22:38:35.288Z,74.44
2022-09-24T22:41:20.656Z,74.97
2022-09-24T22:44:06.971Z,74.43
2022-09-24T22:46:52.578Z,75.05
2022-09-24T22:49:38.018Z,75.38
2022-09-24T22:52:23.401Z,75.20
2022-09-24T22:55:09.765Z,75.14
2022-09-24T22:57:55.621Z,74.93
2022-09-24T23:00:42.106Z,74.95
2022-09-24T23:03:27.755Z,75.03
2022-09-24T23:06:13.457Z,75.05
2022-09-24T23:08:59.399Z,74.59
2022-09-24T23:11:45.069Z,75.16
2022-09-24T23:14:30.361Z,74.54
2022-09-24T23:17:15.932Z,74.99
2022-09-24T23:20:02.933Z,75.01
2022-09-24T23:22:48.901Z,75.36
2022-09-24T23:25:34.447Z,75.09
2022-09-24T23:28:20.118Z,75.15
2022-09-24T23:31:08.058Z,75.47
2022-09-24T23:33:55.518Z,75.83
2022-09-24T23:36:41.675Z,75.92
2022-09-24T23:39:27.465Z,76.41
2022-09-24T23:42:12.749Z,76.20
2022-09-24T23:44:58.249Z,76.87
2022-09-24T23:47:43.666Z,76.89
2022-09-24T23:50:29.158Z,77.45
2022-09-24T23:53:15.802Z,77.38
2022-09-24T23:56:01.938Z,77.15
2022-09-24T23:58:47.408Z,77.59
